Time;durP1;ratioP1;P1;durP2;ratioP2;P2;SDS_P1;SDS_P2;PMS_P1;PMS_P2;Temp;Humidity;BMP_temperature;BMP_pressure;BME280_temperature;BME280_humidity;BME280_pressure;Samples;Min_cycle;Max_cycle;Signal;HPM_P1;HPM_P2
2023/02/11 00:00:00;;;;;;;37.63;24.70;;;6.70;99.90;;;;;;5036134;28;20279;-85
2023/02/11 00:02:28;;;;;;;37.10;24.88;;;6.70;99.90;;;;;;5035359;28;20233;-84
2023/02/11 00:04:55;;;;;;;37.33;25.30;;;6.80;99.90;;;;;;5033555;28;20217;-77
2023/02/11 00:07:22;;;;;;;32.55;24.88;;;6.70;99.90;;;;;;5035444;28;20295;-84
2023/02/11 00:09:51;;;;;;;37.15;25.50;;;6.70;99.90;;;;;;5032592;28;20237;-84
2023/02/11 00:12:20;;;;;;;40.47;25.40;;;6.70;99.90;;;;;;5034972;28;20562;-79
2023/02/11 00:14:51;;;;;;;38.90;26.48;;;6.80;99.90;;;;;;5034696;28;20730;-84
2023/02/11 00:17:18;;;;;;;38.40;26.73;;;6.80;99.90;;;;;;5035174;28;20229;-84
2023/02/11 00:19:49;;;;;;;34.33;24.85;;;6.80;99.90;;;;;;5033897;28;20233;-84
2023/02/11 00:22:16;;;;;;;38.75;24.55;;;6.80;99.90;;;;;;5033235;28;20279;-77
2023/02/11 00:24:43;;;;;;;36.80;23.75;;;6.90;99.90;;;;;;5028154;28;20559;-84
2023/02/11 00:27:12;;;;;;;40.25;25.58;;;6.90;99.90;;;;;;5034760;28;20567;-84
2023/02/11 00:29:40;;;;;;;36.17;25.00;;;6.90;99.90;;;;;;5032370;28;20304;-77
2023/02/11 00:32:07;;;;;;;33.47;24.10;;;6.90;99.90;;;;;;5032653;28;20232;-84
2023/02/11 00:34:36;;;;;;;35.60;24.88;;;6.90;99.90;;;;;;5033708;28;20225;-83
2023/02/11 00:37:04;;;;;;;48.42;28.58;;;6.90;99.90;;;;;;5033516;28;20233;-77
2023/02/11 00:39:32;;;;;;;35.72;24.92;;;6.90;99.90;;;;;;4991615;28;20236;-84
2023/02/11 00:42:00;;;;;;;39.97;25.67;;;6.90;99.90;;;;;;5002257;28;20226;-84
2023/02/11 00:44:29;;;;;;;38.50;26.17;;;6.90;99.90;;;;;;5024713;28;20641;-85
2023/02/11 00:46:58;;;;;;;35.97;23.95;;;7.00;99.90;;;;;;5027897;28;20221;-85
2023/02/11 00:49:25;;;;;;;34.35;24.00;;;7.00;99.90;;;;;;5033032;28;20223;-85
2023/02/11 00:51:52;;;;;;;36.33;25.30;;;7.00;99.90;;;;;;5029740;28;20233;-77
2023/02/11 00:54:20;;;;;;;44.22;27.02;;;7.00;99.90;;;;;;5023979;28;20288;-77
2023/02/11 00:56:47;;;;;;;34.05;23.38;;;7.10;99.90;;;;;;5031803;28;20228;-76
2023/02/11 00:59:14;;;;;;;31.63;23.25;;;7.10;99.90;;;;;;5031967;28;20249;-76
2023/02/11 01:01:42;;;;;;;38.08;25.20;;;7.10;99.90;;;;;;5031940;28;20225;-84
2023/02/11 01:04:09;;;;;;;35.80;23.67;;;7.10;99.90;;;;;;5031447;28;20230;-84
2023/02/11 01:06:36;;;;;;;36.35;26.02;;;7.10;99.90;;;;;;5025406;28;20217;-77
2023/02/11 01:09:04;;;;;;;39.03;27.65;;;7.10;99.90;;;;;;5016301;28;20237;-77
2023/02/11 01:11:31;;;;;;;42.40;27.95;;;7.10;99.90;;;;;;5030305;28;20296;-77
2023/02/11 01:13:58;;;;;;;43.10;27.80;;;7.20;99.90;;;;;;5031472;28;20289;-85
2023/02/11 01:16:27;;;;;;;35.90;25.48;;;7.10;99.90;;;;;;5028024;28;20679;-85
2023/02/11 01:18:57;;;;;;;40.70;27.48;;;7.10;99.90;;;;;;5033007;28;20229;-86
2023/02/11 01:21:25;;;;;;;36.85;25.25;;;7.10;99.90;;;;;;5024295;28;20233;-77
2023/02/11 01:23:54;;;;;;;42.10;28.73;;;7.00;99.90;;;;;;5032605;28;20231;-77
2023/02/11 01:26:24;;;;;;;38.50;24.25;;;6.90;99.90;;;;;;5020529;28;20639;-86
2023/02/11 01:28:51;;;;;;;44.05;26.60;;;6.90;99.90;;;;;;5030739;28;20563;-77
2023/02/11 01:31:18;;;;;;;38.13;24.95;;;7.00;99.90;;;;;;5030621;28;20301;-85
2023/02/11 01:33:45;;;;;;;37.70;28.17;;;7.00;99.90;;;;;;5032175;28;20229;-77
2023/02/11 01:36:14;;;;;;;40.25;26.17;;;7.00;99.90;;;;;;5027107;28;20541;-85
2023/02/11 01:38:43;;;;;;;37.22;26.58;;;7.00;99.90;;;;;;5026381;28;20256;-77
2023/02/11 01:41:13;;;;;;;30.55;22.20;;;7.00;99.90;;;;;;5030619;28;20664;-77
2023/02/11 01:43:43;;;;;;;36.38;23.17;;;7.10;99.90;;;;;;5030626;28;20225;-77
2023/02/11 01:46:33;;;;;;;39.63;26.05;;;7.10;99.90;;;;;;5031098;28;20218;-85
2023/02/11 01:49:06;;;;;;;33.72;23.00;;;7.10;99.90;;;;;;5030914;28;20245;-77
2023/02/11 01:51:39;;;;;;;36.17;25.13;;;7.10;99.90;;;;;;5030728;28;20257;-87
2023/02/11 01:59:50;;;;;;;41.22;27.52;;;7.20;99.90;;;;;;5022419;28;20236;-85
2023/02/11 02:02:23;;;;;;;43.53;28.88;;;7.20;99.90;;;;;;5017661;28;20267;-85
2023/02/11 02:04:55;;;;;;;39.83;27.17;;;7.20;99.90;;;;;;5032435;28;20338;-85
2023/02/11 02:07:36;;;;;;;36.50;26.73;;;7.20;99.90;;;;;;5028581;28;20221;-85
2023/02/11 02:10:07;;;;;;;34.28;24.75;;;7.20;99.90;;;;;;5031981;28;20312;-84
2023/02/11 02:12:34;;;;;;;35.45;24.88;;;7.20;99.90;;;;;;5030451;28;20671;-85
2023/02/11 02:15:29;;;;;;;36.70;24.92;;;7.20;99.90;;;;;;5031123;28;20240;-77
2023/02/11 02:18:10;;;;;;;37.35;25.42;;;7.20;99.90;;;;;;5032225;28;20682;-76
2023/02/11 02:21:19;;;;;;;40.35;26.90;;;7.30;99.90;;;;;;5006019;28;20225;-77
2023/02/11 02:24:22;;;;;;;36.85;26.58;;;7.20;99.90;;;;;;5002904;28;20229;-77
2023/02/11 02:27:17;;;;;;;44.55;26.77;;;7.30;99.90;;;;;;4960826;28;20603;-76
2023/02/11 02:30:29;;;;;;;31.58;23.63;;;7.30;99.90;;;;;;4991038;28;20311;-77
2023/02/11 02:33:15;;;;;;;38.63;27.75;;;7.30;99.90;;;;;;5003134;28;20217;-78
2023/02/11 02:35:49;;;;;;;36.58;26.67;;;7.30;99.90;;;;;;4975613;28;20221;-77
2023/02/11 02:38:21;;;;;;;39.38;25.60;;;7.30;99.90;;;;;;4968298;28;20679;-76
2023/02/11 02:40:51;;;;;;;36.63;26.50;;;7.30;99.90;;;;;;4977240;28;21057;-77
2023/02/11 02:43:19;;;;;;;41.75;28.90;;;7.30;99.90;;;;;;4972988;28;20233;-77
2023/02/11 02:45:46;;;;;;;41.58;28.80;;;7.40;99.90;;;;;;4973046;28;20602;-77
2023/02/11 02:48:34;;;;;;;33.40;25.30;;;7.40;99.90;;;;;;5003349;28;20224;-85
2023/02/11 02:51:25;;;;;;;33.45;23.25;;;7.40;99.90;;;;;;4952450;28;20233;-86
2023/02/11 02:54:15;;;;;;;40.72;29.30;;;7.40;99.90;;;;;;4974254;28;20649;-77
2023/02/11 02:56:48;;;;;;;35.33;27.08;;;7.40;99.90;;;;;;4968107;28;20217;-77
2023/02/11 02:59:41;;;;;;;33.47;24.40;;;7.50;99.90;;;;;;4953537;28;20263;-77
2023/02/11 03:02:15;;;;;;;34.85;25.20;;;7.50;99.90;;;;;;4994948;28;20300;-77
2023/02/11 03:04:55;;;;;;;37.72;26.20;;;7.50;99.90;;;;;;4940495;28;20235;-77
2023/02/11 03:08:07;;;;;;;39.65;26.70;;;7.50;99.90;;;;;;5001656;28;20225;-77
2023/02/11 03:10:43;;;;;;;37.70;27.70;;;7.50;99.90;;;;;;5009023;28;20232;-77
2023/02/11 03:13:19;;;;;;;40.35;25.83;;;7.60;99.90;;;;;;4962195;28;20232;-77
2023/02/11 03:16:00;;;;;;;53.03;34.67;;;7.60;99.90;;;;;;4939370;28;20296;-77
2023/02/11 03:18:37;;;;;;;41.70;27.73;;;7.60;99.90;;;;;;4947774;28;20236;-77
2023/02/11 03:21:12;;;;;;;41.78;26.67;;;7.60;99.90;;;;;;4989184;28;20533;-77
2023/02/11 03:23:44;;;;;;;35.65;25.38;;;7.60;99.90;;;;;;5014199;28;20217;-77
2023/02/11 03:26:19;;;;;;;41.58;29.23;;;7.60;99.90;;;;;;4983211;28;20221;-77
2023/02/11 03:28:55;;;;;;;46.55;30.83;;;7.60;99.90;;;;;;4914861;29;20232;-77
2023/02/11 03:31:40;;;;;;;34.00;26.80;;;7.60;99.90;;;;;;4939395;28;20781;-77
2023/02/11 03:34:17;;;;;;;40.47;30.33;;;7.70;99.90;;;;;;5023524;28;20248;-77
2023/02/11 03:36:52;;;;;;;35.25;26.17;;;7.70;99.90;;;;;;5004703;28;20306;-77
2023/02/11 03:39:31;;;;;;;37.47;26.83;;;7.70;99.90;;;;;;4936972;28;20234;-77
2023/02/11 03:42:08;;;;;;;40.80;27.98;;;7.70;99.90;;;;;;4987048;28;20263;-77
2023/02/11 03:44:43;;;;;;;41.90;28.27;;;7.70;99.90;;;;;;5002508;28;20236;-77
2023/02/11 03:47:15;;;;;;;41.08;28.80;;;7.70;99.90;;;;;;4974638;28;20592;-77
2023/02/11 03:49:47;;;;;;;39.35;28.38;;;7.70;99.90;;;;;;5022399;28;20530;-77
2023/02/11 03:52:18;;;;;;;37.78;27.05;;;7.70;99.90;;;;;;4937127;28;20237;-77
2023/02/11 03:54:51;;;;;;;48.00;29.27;;;7.80;99.90;;;;;;4995498;28;20217;-77
2023/02/11 03:57:18;;;;;;;38.42;26.50;;;7.80;99.90;;;;;;4936901;28;20374;-77
2023/02/11 04:00:05;;;;;;;41.53;30.17;;;7.80;99.90;;;;;;4993567;28;20240;-77
2023/02/11 04:02:45;;;;;;;39.88;27.90;;;7.80;99.90;;;;;;4957984;28;20245;-77
2023/02/11 04:05:15;;;;;;;43.55;30.67;;;7.80;99.90;;;;;;4971804;28;20334;-77
2023/02/11 04:07:45;;;;;;;42.35;30.33;;;7.70;99.90;;;;;;4969151;28;20236;-77
2023/02/11 04:10:17;;;;;;;42.85;29.60;;;7.70;99.90;;;;;;4996457;28;20236;-77
2023/02/11 04:12:44;;;;;;;40.33;28.00;;;7.70;99.90;;;;;;4937767;28;20396;-76
2023/02/11 04:15:12;;;;;;;41.97;28.73;;;7.70;99.90;;;;;;4985860;28;20229;-76
2023/02/11 04:17:39;;;;;;;45.22;30.20;;;7.70;99.90;;;;;;4990852;28;20627;-77
2023/02/11 04:20:07;;;;;;;38.85;29.05;;;7.70;99.90;;;;;;5001034;28;20643;-80
2023/02/11 04:22:34;;;;;;;41.30;30.92;;;7.70;99.90;;;;;;4990360;28;20562;-83
2023/02/11 04:25:03;;;;;;;47.38;31.38;;;7.70;99.90;;;;;;4967376;28;20229;-76
2023/02/11 04:27:30;;;;;;;43.35;29.38;;;7.70;99.90;;;;;;4974042;28;20229;-76
2023/02/11 04:29:57;;;;;;;39.63;29.92;;;7.70;99.90;;;;;;4999931;28;20260;-84
2023/02/11 04:32:24;;;;;;;40.92;31.42;;;7.70;99.90;;;;;;4996166;28;20686;-84
2023/02/11 04:34:53;;;;;;;49.95;30.60;;;7.70;99.90;;;;;;4947284;28;20721;-77
2023/02/11 04:37:20;;;;;;;43.50;30.58;;;7.70;99.90;;;;;;4985876;28;20232;-77
2023/02/11 04:39:47;;;;;;;44.38;31.75;;;7.80;99.90;;;;;;4967219;28;20300;-77
2023/02/11 04:42:15;;;;;;;48.15;31.08;;;7.80;99.90;;;;;;4979686;28;20287;-84
2023/02/11 04:44:43;;;;;;;47.50;31.60;;;7.80;99.90;;;;;;5000846;28;20229;-77
2023/02/11 04:47:12;;;;;;;46.90;30.65;;;7.80;99.90;;;;;;4990338;28;20240;-85
2023/02/11 04:49:39;;;;;;;44.33;30.58;;;7.80;99.90;;;;;;4966731;28;20256;-77
2023/02/11 04:52:15;;;;;;;40.85;30.83;;;7.80;99.90;;;;;;4974561;28;20612;-77
2023/02/11 04:54:42;;;;;;;44.47;32.40;;;7.80;99.90;;;;;;4991650;28;20224;-77
2023/02/11 04:57:09;;;;;;;44.78;30.33;;;7.80;99.90;;;;;;4969694;28;20225;-85
2023/02/11 04:59:38;;;;;;;48.17;33.03;;;7.80;99.90;;;;;;4975234;28;20232;-85
2023/02/11 05:02:05;;;;;;;45.35;35.38;;;7.80;99.90;;;;;;5003261;28;20621;-85
2023/02/11 05:04:32;;;;;;;47.40;32.53;;;7.80;99.90;;;;;;4994951;28;20228;-78
2023/02/11 05:07:03;;;;;;;43.00;31.52;;;7.80;99.90;;;;;;4967149;28;20237;-78
2023/02/11 05:09:30;;;;;;;52.78;34.35;;;7.90;99.90;;;;;;5033034;28;20229;-85
2023/02/11 05:11:58;;;;;;;47.35;33.45;;;7.80;99.90;;;;;;4967417;28;20612;-85
2023/02/11 05:14:25;;;;;;;51.85;32.00;;;7.80;99.90;;;;;;4967735;28;20229;-78
2023/02/11 05:16:53;;;;;;;48.88;30.50;;;7.80;99.90;;;;;;5001015;28;20239;-78
2023/02/11 05:19:20;;;;;;;49.45;34.10;;;7.70;99.90;;;;;;5003805;28;20233;-83
2023/02/11 05:21:48;;;;;;;49.35;33.78;;;7.80;99.90;;;;;;4956257;28;20257;-77
2023/02/11 05:24:15;;;;;;;42.28;30.33;;;7.80;99.90;;;;;;4968597;28;20286;-85
2023/02/11 05:26:42;;;;;;;44.28;30.27;;;7.70;99.90;;;;;;5001619;28;20292;-77
2023/02/11 05:29:10;;;;;;;42.90;29.40;;;7.80;99.90;;;;;;4953347;28;20686;-77
2023/02/11 05:31:37;;;;;;;46.88;33.22;;;7.80;99.90;;;;;;4967023;28;20221;-77
2023/02/11 05:34:05;;;;;;;48.88;34.00;;;7.80;99.90;;;;;;4966145;28;20264;-84
2023/02/11 05:36:32;;;;;;;43.35;31.67;;;7.80;99.90;;;;;;4963917;28;20726;-76
2023/02/11 05:38:59;;;;;;;45.67;32.13;;;7.70;99.90;;;;;;4984353;28;20229;-85
2023/02/11 05:41:27;;;;;;;52.15;34.70;;;7.80;99.90;;;;;;5007467;28;20235;-84
2023/02/11 05:43:54;;;;;;;48.70;32.03;;;7.80;99.90;;;;;;4984942;28;20233;-77
2023/02/11 05:46:21;;;;;;;44.83;32.28;;;7.80;99.90;;;;;;5013068;28;20241;-77
2023/02/11 05:48:48;;;;;;;57.72;37.35;;;7.80;99.90;;;;;;4981111;28;20241;-77
2023/02/11 05:51:17;;;;;;;53.97;34.90;;;7.80;99.90;;;;;;4971786;28;20244;-77
2023/02/11 05:53:44;;;;;;;41.38;31.60;;;7.80;99.90;;;;;;4997471;28;20295;-85
2023/02/11 05:56:11;;;;;;;45.92;32.97;;;7.80;99.90;;;;;;5018169;28;20225;-85
2023/02/11 05:58:38;;;;;;;44.90;34.20;;;7.80;99.90;;;;;;4974571;28;20222;-85
2023/02/11 06:01:06;;;;;;;48.53;34.80;;;7.80;99.90;;;;;;4972189;28;20229;-86
2023/02/11 06:03:33;;;;;;;49.42;36.08;;;7.80;99.90;;;;;;5000019;28;20237;-77
2023/02/11 06:06:00;;;;;;;53.10;35.13;;;7.80;99.90;;;;;;4999511;28;20233;-78
2023/02/11 06:08:28;;;;;;;50.92;34.55;;;7.90;99.90;;;;;;4939749;28;20291;-84
2023/02/11 06:10:55;;;;;;;45.80;34.53;;;7.90;99.90;;;;;;5001955;28;20225;-77
2023/02/11 06:13:22;;;;;;;61.65;40.63;;;7.90;99.90;;;;;;4916472;28;20237;-85
2023/02/11 06:15:56;;;;;;;49.30;35.83;;;7.90;99.90;;;;;;4917031;29;20236;-77
2023/02/11 06:18:23;;;;;;;57.00;39.38;;;7.80;99.90;;;;;;4918257;29;20264;-76
2023/02/11 06:20:51;;;;;;;50.40;35.92;;;7.80;99.90;;;;;;4916007;29;20295;-77
2023/02/11 06:23:18;;;;;;;49.78;33.40;;;7.80;99.90;;;;;;4916912;29;20237;-77
2023/02/11 06:25:46;;;;;;;54.05;36.17;;;7.80;99.90;;;;;;4916578;29;20617;-77
2023/02/11 06:28:13;;;;;;;57.05;36.83;;;7.80;99.90;;;;;;4916754;29;20229;-77
2023/02/11 06:30:40;;;;;;;58.33;37.10;;;7.80;99.90;;;;;;4916037;29;20233;-77
2023/02/11 06:33:07;;;;;;;53.65;36.90;;;7.80;99.90;;;;;;4916614;28;20612;-77
2023/02/11 06:35:35;;;;;;;50.53;35.17;;;7.80;99.90;;;;;;4916281;29;20227;-84
2023/02/11 06:38:06;;;;;;;55.63;38.08;;;7.90;99.90;;;;;;4918733;29;20240;-86
2023/02/11 06:40:33;;;;;;;50.65;35.55;;;7.90;99.90;;;;;;4917323;29;20691;-85
2023/02/11 06:43:04;;;;;;;52.65;35.33;;;7.90;99.90;;;;;;4918415;28;20244;-85
2023/02/11 06:45:31;;;;;;;54.78;38.28;;;7.90;99.90;;;;;;4917945;28;20276;-84
2023/02/11 06:47:58;;;;;;;53.40;38.30;;;7.90;99.90;;;;;;4918083;29;20233;-77
2023/02/11 06:50:25;;;;;;;56.05;37.13;;;7.90;99.90;;;;;;4917437;29;20237;-85
2023/02/11 06:52:52;;;;;;;50.88;34.50;;;7.90;99.90;;;;;;4917499;28;20519;-77
2023/02/11 06:55:20;;;;;;;52.90;37.25;;;7.90;99.90;;;;;;4917371;28;20295;-77
2023/02/11 06:57:47;;;;;;;53.55;36.80;;;8.00;99.90;;;;;;4916799;29;20230;-85
2023/02/11 07:00:16;;;;;;;56.83;37.03;;;8.00;99.90;;;;;;4916864;29;20296;-76
2023/02/11 07:02:44;;;;;;;59.03;38.50;;;8.00;99.90;;;;;;4917227;28;20709;-84
2023/02/11 07:05:11;;;;;;;51.13;37.70;;;8.00;99.90;;;;;;4917856;28;20233;-85
2023/02/11 07:07:38;;;;;;;51.72;37.22;;;8.00;99.90;;;;;;4916049;29;20237;-77
2023/02/11 07:10:06;;;;;;;57.83;36.10;;;8.00;99.90;;;;;;4916145;29;20319;-76
2023/02/11 07:12:33;;;;;;;57.42;36.42;;;8.00;99.90;;;;;;4915851;28;20249;-76
2023/02/11 07:15:00;;;;;;;60.63;41.28;;;8.00;99.90;;;;;;4917356;29;20237;-85
2023/02/11 07:17:29;;;;;;;62.17;42.17;;;8.00;99.90;;;;;;4917472;28;20324;-85
2023/02/11 07:19:56;;;;;;;63.97;40.30;;;8.10;99.90;;;;;;4916498;28;20260;-85
2023/02/11 07:22:23;;;;;;;68.75;42.13;;;8.00;99.90;;;;;;4917232;28;20226;-85
2023/02/11 07:24:50;;;;;;;72.15;43.30;;;8.00;99.90;;;;;;4916624;29;20292;-86
2023/02/11 07:27:17;;;;;;;53.90;38.83;;;8.00;99.90;;;;;;4916034;29;20245;-77
2023/02/11 07:29:45;;;;;;;59.70;39.42;;;8.00;99.90;;;;;;4915468;29;20354;-77
2023/02/11 07:32:13;;;;;;;73.68;44.67;;;8.00;99.90;;;;;;4916780;29;20229;-85
2023/02/11 07:34:44;;;;;;;55.58;38.50;;;8.10;99.90;;;;;;4914503;29;20399;-77
2023/02/11 07:37:11;;;;;;;67.68;39.58;;;8.10;99.90;;;;;;4917027;28;20560;-86
2023/02/11 07:39:38;;;;;;;55.40;37.28;;;8.10;99.90;;;;;;4916791;29;20684;-85
2023/02/11 07:42:05;;;;;;;57.67;38.50;;;8.10;99.90;;;;;;4916273;29;20276;-76
2023/02/11 07:44:33;;;;;;;63.83;39.20;;;8.10;99.90;;;;;;4916320;28;20304;-76
2023/02/11 07:47:01;;;;;;;52.08;34.97;;;8.20;99.90;;;;;;4915561;29;20225;-84
2023/02/11 07:49:28;;;;;;;50.67;36.20;;;8.20;99.90;;;;;;4915781;28;20229;-77
2023/02/11 07:51:56;;;;;;;54.65;37.30;;;8.30;99.90;;;;;;4915266;28;20295;-76
2023/02/11 07:54:23;;;;;;;57.80;38.25;;;8.30;99.90;;;;;;4916974;29;20237;-85
2023/02/11 07:56:50;;;;;;;51.03;36.80;;;8.40;99.90;;;;;;4916005;29;20291;-84
2023/02/11 07:59:17;;;;;;;52.10;36.42;;;8.40;99.90;;;;;;4916240;29;20218;-76
2023/02/11 08:01:44;;;;;;;64.18;43.17;;;8.40;99.90;;;;;;4915508;28;20225;-77
2023/02/11 08:04:11;;;;;;;63.28;41.05;;;8.40;99.90;;;;;;4915381;28;20226;-77
2023/02/11 08:06:42;;;;;;;56.78;38.42;;;8.40;99.90;;;;;;4915195;28;20221;-77
2023/02/11 08:09:18;;;;;;;53.88;37.15;;;8.40;99.90;;;;;;4907948;28;20239;-85
2023/02/11 08:11:46;;;;;;;58.70;37.53;;;8.40;99.90;;;;;;4916344;29;20634;-78
2023/02/11 08:14:13;;;;;;;63.13;36.67;;;8.50;99.90;;;;;;4914034;28;20237;-77
2023/02/11 08:16:40;;;;;;;56.70;36.65;;;8.50;99.90;;;;;;4914907;29;20283;-77
2023/02/11 08:19:10;;;;;;;51.22;34.08;;;8.50;99.90;;;;;;4915065;29;20222;-78
2023/02/11 08:21:38;;;;;;;62.90;43.35;;;8.60;99.90;;;;;;4914897;29;20229;-78
2023/02/11 08:24:06;;;;;;;61.08;37.72;;;8.60;99.90;;;;;;4914446;29;20316;-77
2023/02/11 08:26:35;;;;;;;60.45;38.88;;;8.60;99.90;;;;;;4914982;28;20232;-77
2023/02/11 08:29:07;;;;;;;61.60;39.10;;;8.60;99.90;;;;;;4914086;29;20225;-77
2023/02/11 08:31:37;;;;;;;53.58;35.65;;;8.50;99.90;;;;;;4916272;29;20260;-85
2023/02/11 08:34:04;;;;;;;54.70;36.03;;;8.60;99.90;;;;;;4915561;28;20230;-78
2023/02/11 08:36:34;;;;;;;50.35;34.45;;;8.60;99.90;;;;;;4915571;28;20623;-77
2023/02/11 08:39:07;;;;;;;50.25;35.33;;;8.60;99.90;;;;;;4915997;29;20229;-86
2023/02/11 08:41:35;;;;;;;57.95;36.13;;;8.60;99.90;;;;;;4916025;28;20237;-77
2023/02/11 08:44:03;;;;;;;50.10;35.60;;;8.60;99.90;;;;;;4915270;29;20241;-85
2023/02/11 08:46:31;;;;;;;52.60;36.95;;;8.70;99.90;;;;;;4915043;28;20264;-76
2023/02/11 08:48:58;;;;;;;56.53;35.30;;;8.70;99.90;;;;;;4916025;29;20229;-85
2023/02/11 08:51:29;;;;;;;54.90;36.90;;;8.70;99.90;;;;;;4916158;28;20237;-77
2023/02/11 08:54:05;;;;;;;53.53;38.30;;;8.70;99.90;;;;;;4913469;29;20233;-77
2023/02/11 08:56:32;;;;;;;61.47;39.47;;;8.70;99.90;;;;;;4916641;29;20308;-77
2023/02/11 08:59:01;;;;;;;65.50;42.35;;;8.60;99.90;;;;;;4914398;29;20233;-85
2023/02/11 09:01:30;;;;;;;62.80;38.42;;;8.60;99.90;;;;;;4917448;29;20229;-84
2023/02/11 09:03:58;;;;;;;59.90;39.50;;;8.60;99.90;;;;;;4916761;29;20237;-84
2023/02/11 09:06:26;;;;;;;58.92;39.95;;;8.60;99.90;;;;;;4917215;29;20312;-86
2023/02/11 09:08:55;;;;;;;63.90;40.15;;;8.60;99.90;;;;;;4918584;28;20710;-84
2023/02/11 09:11:28;;;;;;;54.90;33.63;;;8.60;99.90;;;;;;4907832;28;20276;-85
2023/02/11 09:13:55;;;;;;;53.22;33.65;;;8.60;99.90;;;;;;4914970;28;20230;-77
2023/02/11 09:16:26;;;;;;;51.75;37.58;;;8.60;99.90;;;;;;4914603;28;20312;-77
2023/02/11 09:18:56;;;;;;;49.70;34.42;;;8.60;99.90;;;;;;4914377;29;20221;-77
2023/02/11 09:21:23;;;;;;;58.30;33.20;;;8.70;99.90;;;;;;4914050;28;20329;-76
2023/02/11 09:23:50;;;;;;;51.00;33.25;;;8.70;99.90;;;;;;4914918;28;20237;-84
2023/02/11 09:26:21;;;;;;;45.72;32.22;;;8.70;99.90;;;;;;4917993;28;20262;-76
2023/02/11 09:28:50;;;;;;;49.53;34.95;;;8.70;99.90;;;;;;4920993;28;20233;-77
2023/02/11 09:31:19;;;;;;;43.80;33.65;;;8.70;99.90;;;;;;4923753;28;20244;-83
2023/02/11 09:33:49;;;;;;;54.35;35.13;;;8.70;99.90;;;;;;4919451;28;20225;-77
2023/02/11 09:36:20;;;;;;;49.17;33.67;;;8.70;99.90;;;;;;4920826;29;20233;-77
2023/02/11 09:38:49;;;;;;;48.25;33.45;;;8.70;99.90;;;;;;4922202;28;20312;-86
2023/02/11 09:41:33;;;;;;;46.38;33.05;;;8.70;99.90;;;;;;4912861;29;20627;-78
2023/02/11 09:44:03;;;;;;;46.22;32.55;;;8.70;99.90;;;;;;4914915;28;20260;-78
2023/02/11 09:46:34;;;;;;;44.60;30.55;;;8.80;99.90;;;;;;4916334;28;20233;-77
2023/02/11 09:49:15;;;;;;;51.65;34.20;;;8.80;99.90;;;;;;4914631;28;20233;-77
2023/02/11 09:51:47;;;;;;;43.03;32.03;;;8.80;99.90;;;;;;4921267;28;20315;-85
2023/02/11 09:54:23;;;;;;;41.70;29.40;;;8.80;99.90;;;;;;4914206;28;20233;-77
2023/02/11 09:56:50;;;;;;;45.83;31.58;;;8.90;99.90;;;;;;4914123;29;20233;-77
2023/02/11 09:59:19;;;;;;;46.40;34.00;;;8.90;99.90;;;;;;4914074;28;20225;-86
2023/02/11 10:01:49;;;;;;;44.85;29.17;;;8.90;99.90;;;;;;4914244;28;20241;-77
2023/02/11 10:04:30;;;;;;;50.78;33.20;;;9.00;99.90;;;;;;4914290;29;20256;-83
2023/02/11 10:07:03;;;;;;;43.58;31.05;;;9.00;99.90;;;;;;4914801;28;20702;-77
2023/02/11 10:10:01;;;;;;;41.70;27.77;;;9.00;99.90;;;;;;4914044;29;20233;-76
2023/02/11 10:12:44;;;;;;;43.58;30.27;;;9.10;99.90;;;;;;4913762;29;20333;-77
2023/02/11 10:15:21;;;;;;;48.90;31.00;;;9.10;99.90;;;;;;4915189;29;20553;-85
2023/02/11 10:18:02;;;;;;;48.00;30.10;;;9.10;99.90;;;;;;4916278;29;20229;-85
2023/02/11 10:20:36;;;;;;;42.38;30.80;;;9.10;99.90;;;;;;4913547;29;20632;-85
2023/02/11 10:23:15;;;;;;;43.47;33.03;;;9.10;99.90;;;;;;4914482;29;20228;-85
2023/02/11 10:25:44;;;;;;;46.80;31.55;;;9.20;99.90;;;;;;4915856;29;20236;-85
2023/02/11 10:28:14;;;;;;;44.83;29.63;;;9.20;99.90;;;;;;4912545;28;20295;-76
2023/02/11 10:30:48;;;;;;;45.35;31.05;;;9.20;99.90;;;;;;4913793;29;20225;-76
2023/02/11 10:33:23;;;;;;;45.47;30.23;;;9.20;99.90;;;;;;4913020;29;20225;-76
2023/02/11 10:35:52;;;;;;;47.53;32.00;;;9.20;99.90;;;;;;4913852;29;20292;-76
2023/02/11 10:38:19;;;;;;;37.58;27.30;;;9.20;99.90;;;;;;4916775;28;20221;-76
2023/02/11 10:40:47;;;;;;;49.58;34.58;;;9.20;99.90;;;;;;4916454;28;20240;-76
2023/02/11 10:43:16;;;;;;;45.00;31.10;;;9.20;99.90;;;;;;4919496;28;20253;-76
2023/02/11 10:45:47;;;;;;;48.58;32.40;;;9.20;99.90;;;;;;4916416;28;20236;-76
2023/02/11 10:48:42;;;;;;;51.00;34.72;;;9.10;99.90;;;;;;4916292;29;20229;-76
2023/02/11 10:51:18;;;;;;;51.03;33.25;;;9.10;99.90;;;;;;4924362;28;20238;-76
2023/02/11 10:53:46;;;;;;;46.28;32.70;;;9.10;99.90;;;;;;4916754;29;20225;-76
2023/02/11 10:56:21;;;;;;;40.10;30.35;;;9.10;99.90;;;;;;4915673;28;20275;-77
2023/02/11 10:58:56;;;;;;;38.78;26.40;;;9.10;99.90;;;;;;4920381;28;20560;-85
2023/02/11 11:01:46;;;;;;;47.63;30.15;;;9.10;99.90;;;;;;4917254;29;20236;-77
2023/02/11 11:04:37;;;;;;;38.63;28.05;;;9.10;99.90;;;;;;4932690;28;20230;-79
2023/02/11 11:07:16;;;;;;;47.90;28.95;;;9.10;99.90;;;;;;4928385;29;20233;-85
2023/02/11 11:09:50;;;;;;;42.75;27.58;;;9.10;99.90;;;;;;4929699;29;20229;-86
2023/02/11 11:12:30;;;;;;;44.80;30.80;;;9.10;99.90;;;;;;4931973;28;20675;-86
2023/02/11 11:14:59;;;;;;;47.90;31.67;;;9.10;99.90;;;;;;4927807;28;20229;-87
2023/02/11 11:17:28;;;;;;;40.85;27.33;;;9.10;99.90;;;;;;4929444;29;20644;-77
2023/02/11 11:20:13;;;;;;;43.03;28.80;;;9.10;99.90;;;;;;4899738;28;20236;-77
2023/02/11 11:22:46;;;;;;;42.53;28.13;;;9.10;99.90;;;;;;4918042;28;20252;-77
2023/02/11 11:25:27;;;;;;;37.42;28.35;;;9.20;99.90;;;;;;4917156;28;20352;-78
2023/02/11 11:27:57;;;;;;;43.33;28.08;;;9.20;99.90;;;;;;4920095;28;20645;-86
2023/02/11 11:30:34;;;;;;;38.90;27.50;;;9.10;99.90;;;;;;4920011;29;20494;-85
2023/02/11 11:33:02;;;;;;;36.80;26.30;;;9.20;99.90;;;;;;4920291;29;20251;-77
2023/02/11 11:35:32;;;;;;;33.85;26.05;;;9.20;99.90;;;;;;4916339;28;20280;-77
2023/02/11 11:38:04;;;;;;;38.53;27.35;;;9.20;99.90;;;;;;4918224;28;20226;-85
2023/02/11 11:40:32;;;;;;;34.90;26.35;;;9.20;99.90;;;;;;4916088;28;20272;-77
2023/02/11 11:43:06;;;;;;;39.55;27.30;;;9.20;99.90;;;;;;4916443;28;20249;-86
2023/02/11 11:45:33;;;;;;;28.77;22.95;;;9.30;99.90;;;;;;4915582;29;20564;-77
2023/02/11 11:48:06;;;;;;;41.40;27.42;;;9.30;99.90;;;;;;4915518;29;20229;-86
2023/02/11 11:50:37;;;;;;;37.38;26.92;;;9.30;99.90;;;;;;4917229;28;20675;-77
2023/02/11 11:53:12;;;;;;;36.78;28.33;;;9.30;99.90;;;;;;4916501;28;20238;-85
2023/02/11 11:55:43;;;;;;;37.08;23.40;;;9.30;99.90;;;;;;4918571;28;20256;-77
2023/02/11 11:58:20;;;;;;;33.40;25.00;;;9.30;99.90;;;;;;4922007;28;20237;-78
2023/02/11 12:00:56;;;;;;;38.88;25.27;;;9.30;99.90;;;;;;4916201;28;20588;-78
2023/02/11 12:04:09;;;;;;;38.65;27.75;;;9.30;99.90;;;;;;4916090;29;20225;-77
2023/02/11 12:06:44;;;;;;;35.72;23.98;;;9.40;99.90;;;;;;4916386;28;20217;-78
2023/02/11 12:09:24;;;;;;;31.05;22.77;;;9.40;99.90;;;;;;4908375;28;20541;-77
2023/02/11 12:12:06;;;;;;;28.23;22.50;;;9.40;99.90;;;;;;4914976;29;20226;-78
2023/02/11 12:14:43;;;;;;;33.88;21.92;;;9.40;99.90;;;;;;4915833;28;20244;-86
2023/02/11 12:17:19;;;;;;;27.75;22.00;;;9.40;99.90;;;;;;4915937;28;20236;-87
2023/02/11 12:20:00;;;;;;;29.02;20.95;;;9.40;99.90;;;;;;4917196;29;20233;-86
2023/02/11 12:22:41;;;;;;;27.92;23.70;;;9.40;99.90;;;;;;4918286;28;20255;-87
2023/02/11 12:25:27;;;;;;;33.67;22.17;;;9.40;99.90;;;;;;4917822;28;20221;-85
2023/02/11 12:28:06;;;;;;;26.45;20.25;;;9.40;99.90;;;;;;4916864;29;20222;-78
2023/02/11 12:30:57;;;;;;;25.80;18.88;;;9.40;99.90;;;;;;4916545;29;20230;-86
2023/02/11 12:33:48;;;;;;;22.42;18.77;;;9.40;99.90;;;;;;4919590;28;20240;-86
2023/02/11 12:36:26;;;;;;;23.65;17.85;;;9.50;99.90;;;;;;4919448;29;20287;-85
2023/02/11 12:39:09;;;;;;;27.38;19.55;;;9.50;99.90;;;;;;4916956;29;20217;-85
2023/02/11 12:44:54;;;;;;;22.98;16.80;;;9.50;99.90;;;;;;4918950;28;20236;-85
2023/02/11 12:47:32;;;;;;;27.88;18.73;;;9.50;99.90;;;;;;4916665;29;20279;-76
2023/02/11 12:50:14;;;;;;;23.52;17.92;;;9.60;99.90;;;;;;4915383;29;20303;-77
2023/02/11 12:52:57;;;;;;;24.02;18.52;;;9.60;99.90;;;;;;4914855;29;20241;-77
2023/02/11 12:55:28;;;;;;;26.20;18.38;;;9.60;99.90;;;;;;4916148;28;20230;-85
2023/02/11 12:57:58;;;;;;;26.55;18.55;;;9.60;99.90;;;;;;4919685;29;20225;-85
2023/02/11 13:00:31;;;;;;;22.80;17.60;;;9.60;99.90;;;;;;4917983;28;20233;-77
2023/02/11 13:03:05;;;;;;;21.90;17.27;;;9.60;99.90;;;;;;4915839;28;20229;-77
2023/02/11 13:05:40;;;;;;;25.20;18.30;;;9.60;99.90;;;;;;4918004;28;20604;-86
2023/02/11 13:08:12;;;;;;;30.40;18.92;;;9.60;99.90;;;;;;4917598;29;20691;-77